Terminal Aerodrome Forecast
Issued by NWS

Home | Current Version | Previous Version | Text Only | Print | Product List | Glossary On
Versions: 1 2 3 4 5 6 7 8 9 10 11 12 13 14 15 16 17 18 19 20 21 22 23 24 25 26 27 28 29 30 31 32 33 34 35
000
FTUS42 KJAX 290218 AAB
TAFCRG
TAF AMD
KCRG 290218Z 2902/2924 09007KT P6SM VCSH SCT025 BKN250
      TEMPO 2902/2903 BKN025
     FM290300 08004KT P6SM SCT020 BKN250
     FM291400 09007KT P6SM BKN025 BKN250
     FM291700 09009KT P6SM VCTS BKN030CB BKN250=

USA.gov is the U.S. government's official web portal to all federal, state and local government web resources and services.